createdAt,value
2023-03-01T00:01:24.420Z,2.09
2023-03-01T00:03:53.366Z,2.18
2023-03-01T00:06:22.505Z,2.07
2023-03-01T00:08:51.744Z,1.91
2023-03-01T00:11:22.006Z,1.87
2023-03-01T00:13:52.854Z,1.70
2023-03-01T00:16:25.513Z,1.67
2023-03-01T00:18:54.363Z,1.84
2023-03-01T00:21:23.465Z,1.87
2023-03-01T00:23:52.665Z,1.84
2023-03-01T00:26:22.224Z,1.86
2023-03-01T00:28:50.403Z,1.54
2023-03-01T00:31:20.515Z,1.27
2023-03-01T00:33:50.717Z,1.25
2023-03-01T00:36:18.758Z,1.36
2023-03-01T00:38:47.936Z,1.25
2023-03-01T00:41:18.949Z,1.32
2023-03-01T00:43:47.632Z,1.08
2023-03-01T00:46:17.677Z,0.71
2023-03-01T00:48:46.514Z,0.73
2023-03-01T00:51:18.490Z,1.12
2023-03-01T00:53:48.038Z,1.09
2023-03-01T00:56:17.420Z,0.86
2023-03-01T00:58:46.114Z,0.66
2023-03-01T01:01:19.214Z,0.86
2023-03-01T01:03:49.367Z,1.03
2023-03-01T01:06:22.498Z,0.97
2023-03-01T01:08:51.466Z,0.90
2023-03-01T01:11:21.124Z,1.07
2023-03-01T01:13:50.726Z,0.97
2023-03-01T01:16:20.577Z,0.93
2023-03-01T01:18:49.108Z,0.96
2023-03-01T01:21:21.091Z,0.76
2023-03-01T01:23:49.973Z,0.93
2023-03-01T01:26:20.323Z,0.90
2023-03-01T01:28:49.609Z,0.94
2023-03-01T01:31:18.368Z,0.73
2023-03-01T01:33:47.410Z,0.79
2023-03-01T01:36:15.854Z,0.68
2023-03-01T01:38:45.588Z,0.63
2023-03-01T01:41:15.061Z,0.59
2023-03-01T01:43:45.563Z,0.74
2023-03-01T01:46:24.242Z,0.73
2023-03-01T01:48:58.059Z,0.74
2023-03-01T01:51:30.208Z,0.98
2023-03-01T01:54:03.137Z,0.91
2023-03-01T01:56:32.151Z,0.71
2023-03-01T01:59:00.672Z,0.45
2023-03-01T02:01:29.765Z,0.75
2023-03-01T02:03:58.178Z,0.73
2023-03-01T02:06:32.572Z,0.75
2023-03-01T02:09:07.394Z,0.60
2023-03-01T02:11:38.686Z,0.73
2023-03-01T02:14:07.430Z,0.67
2023-03-01T02:16:35.946Z,0.82
2023-03-01T02:19:07.350Z,0.86
2023-03-01T02:21:44.232Z,0.46
2023-03-01T02:24:25.634Z,-0.03
2023-03-01T02:26:57.725Z,-0.03
2023-03-01T02:29:29.057Z,0.07
2023-03-01T02:31:59.375Z,0.39
2023-03-01T02:34:30.219Z,0.39
2023-03-01T02:37:02.418Z,0.19
2023-03-01T02:39:36.021Z,0.08
2023-03-01T02:42:06.222Z,0.16
2023-03-01T02:44:36.338Z,0.33
2023-03-01T02:47:07.168Z,0.28
2023-03-01T02:49:38.450Z,0.22
2023-03-01T02:52:32.640Z,0.14
2023-03-01T02:55:05.321Z,0.22
2023-03-01T02:57:36.206Z,-0.04
2023-03-01T03:00:09.929Z,0.12
2023-03-01T03:02:39.563Z,-0.05
2023-03-01T03:05:14.820Z,0.15
2023-03-01T03:07:45.690Z,-0.15
2023-03-01T03:10:15.944Z,-0.44
2023-03-01T03:12:45.048Z,-0.37
2023-03-01T03:15:14.774Z,0.01
2023-03-01T03:17:45.985Z,-0.02
2023-03-01T03:20:20.225Z,0.05
2023-03-01T03:22:49.426Z,0.08
2023-03-01T03:25:18.990Z,0.13
2023-03-01T03:27:49.865Z,0.25
2023-03-01T03:30:22.818Z,0.13
2023-03-01T03:32:54.404Z,-0.09
2023-03-01T03:35:25.444Z,-0.22
2023-03-01T03:38:07.464Z,-0.24
2023-03-01T03:40:37.359Z,-0.23
2023-03-01T03:43:07.006Z,0.07
2023-03-01T03:45:37.362Z,0.15
2023-03-01T03:48:08.456Z,0.08
2023-03-01T03:50:37.068Z,0.01
2023-03-01T03:53:07.692Z,0.13
2023-03-01T03:55:36.541Z,0.06
2023-03-01T03:58:08.014Z,-0.36
2023-03-01T04:00:39.520Z,-0.20
2023-03-01T04:03:08.596Z,-0.28
2023-03-01T04:05:38.385Z,-0.31
2023-03-01T04:08:08.433Z,-0.28
2023-03-01T04:10:38.974Z,-0.47
2023-03-01T04:13:08.171Z,-0.32
2023-03-01T04:15:38.341Z,-0.34
2023-03-01T04:18:07.022Z,-0.52
2023-03-01T04:20:37.433Z,-0.37
2023-03-01T04:23:14.230Z,-0.56
2023-03-01T04:25:44.044Z,-0.44
2023-03-01T04:28:12.265Z,-0.48
2023-03-01T04:30:42.500Z,-0.27
2023-03-01T04:33:12.154Z,-0.16
2023-03-01T04:35:41.624Z,-0.34
2023-03-01T04:38:10.652Z,-0.51
2023-03-01T04:40:39.736Z,-0.44
2023-03-01T04:43:07.987Z,-0.38
2023-03-01T04:45:36.761Z,-0.37
2023-03-01T04:48:07.233Z,-0.40
2023-03-01T04:50:35.463Z,-0.42
2023-03-01T04:53:04.094Z,-0.43
2023-03-01T04:55:32.768Z,-0.50
2023-03-01T04:58:00.863Z,-0.38
2023-03-01T05:00:29.414Z,-0.44
2023-03-01T05:02:58.925Z,-0.45
2023-03-01T05:05:32.507Z,-0.32
2023-03-01T05:08:03.045Z,-0.81
2023-03-01T05:10:33.072Z,-0.65
2023-03-01T05:13:01.897Z,-0.61
2023-03-01T05:15:31.953Z,-0.66
2023-03-01T05:18:01.888Z,-0.40
2023-03-01T05:20:32.339Z,-0.33
2023-03-01T05:23:06.296Z,-0.51
2023-03-01T05:25:41.228Z,-0.54
2023-03-01T05:28:13.308Z,-0.55
2023-03-01T05:30:41.764Z,-0.85
2023-03-01T05:33:14.664Z,-0.64
2023-03-01T05:35:45.984Z,-0.43
2023-03-01T05:38:15.267Z,-0.43
2023-03-01T05:40:44.709Z,-0.64
2023-03-01T05:43:14.970Z,-0.54
2023-03-01T05:45:43.595Z,-0.73
2023-03-01T05:48:13.782Z,-0.75
2023-03-01T05:50:46.675Z,-0.63
2023-03-01T05:53:16.887Z,-0.47
2023-03-01T05:55:47.211Z,-0.50
2023-03-01T05:58:17.285Z,-0.66
2023-03-01T06:00:46.793Z,-0.83
2023-03-01T06:03:16.873Z,-0.87
2023-03-01T06:05:47.012Z,-0.48
2023-03-01T06:08:15.844Z,-0.45
2023-03-01T06:10:43.953Z,-0.40
2023-03-01T06:13:12.341Z,-0.14
2023-03-01T06:15:40.621Z,-0.03
2023-03-01T06:18:09.404Z,-0.28
2023-03-01T06:20:37.576Z,-0.03
2023-03-01T06:23:08.361Z,0.24
2023-03-01T06:25:37.290Z,0.23
2023-03-01T06:28:05.856Z,0.30
2023-03-01T06:30:34.147Z,0.56
2023-03-01T06:33:02.881Z,0.78
2023-03-01T06:35:32.259Z,0.80
2023-03-01T06:38:01.929Z,0.83
2023-03-01T06:40:33.699Z,0.86
2023-03-01T06:43:02.042Z,0.95
2023-03-01T06:45:30.070Z,0.94
2023-03-01T06:48:06.111Z,1.41
2023-03-01T06:50:34.865Z,1.49
2023-03-01T06:53:03.260Z,1.27
2023-03-01T06:55:33.714Z,1.59
2023-03-01T06:58:03.108Z,1.73
2023-03-01T07:00:31.725Z,2.03
2023-03-01T07:03:01.593Z,1.04
2023-03-01T07:05:30.698Z,1.55
2023-03-01T07:07:59.156Z,1.54
2023-03-01T07:10:27.839Z,1.23
2023-03-01T07:12:58.822Z,1.66
2023-03-01T07:15:28.303Z,2.17
2023-03-01T07:17:56.543Z,2.23
2023-03-01T07:20:26.320Z,2.34
2023-03-01T07:22:55.544Z,2.84
2023-03-01T07:25:23.929Z,3.13
2023-03-01T07:27:53.250Z,8.98
2023-03-01T07:30:27.016Z,15.39
2023-03-01T07:32:55.901Z,20.63
2023-03-01T07:35:24.569Z,23.08
2023-03-01T07:37:53.046Z,23.82
2023-03-01T07:40:21.833Z,25.61
2023-03-01T07:42:50.290Z,24.54
2023-03-01T07:45:18.590Z,25.04
2023-03-01T07:47:48.064Z,26.06
2023-03-01T07:50:16.666Z,24.47
2023-03-01T07:52:47.510Z,23.91
2023-03-01T07:55:17.169Z,24.92
2023-03-01T07:57:45.300Z,26.07
2023-03-01T08:00:15.327Z,24.86
2023-03-01T08:02:43.484Z,24.35
2023-03-01T08:05:12.949Z,26.29
2023-03-01T08:07:41.460Z,28.01
2023-03-01T08:10:11.315Z,27.15
2023-03-01T08:12:39.551Z,30.51
2023-03-01T08:15:09.251Z,28.09
2023-03-01T08:17:37.827Z,27.42
2023-03-01T08:20:08.136Z,28.64
2023-03-01T08:22:37.934Z,28.57
2023-03-01T08:25:06.920Z,27.86
2023-03-01T08:27:35.098Z,29.41
2023-03-01T08:30:03.466Z,29.06
2023-03-01T08:32:32.076Z,30.99
2023-03-01T08:35:00.740Z,26.41
2023-03-01T08:37:32.041Z,18.72
2023-03-01T08:40:01.639Z,24.16
2023-03-01T08:42:30.709Z,20.06
2023-03-01T08:44:59.120Z,25.68
2023-03-01T08:47:27.344Z,25.16
2023-03-01T08:49:55.605Z,21.28
2023-03-01T08:52:25.597Z,18.58
2023-03-01T08:54:53.731Z,21.58
2023-03-01T08:57:23.414Z,22.06
2023-03-01T08:59:51.791Z,17.65
2023-03-01T09:02:20.671Z,13.37
2023-03-01T09:04:48.975Z,14.82
2023-03-01T09:07:17.072Z,20.81
2023-03-01T09:09:45.884Z,17.92
2023-03-01T09:12:14.430Z,16.20
2023-03-01T09:14:43.963Z,15.19
2023-03-01T09:17:12.595Z,18.15
2023-03-01T09:19:40.807Z,21.33
2023-03-01T09:22:09.030Z,17.63
2023-03-01T09:24:37.650Z,15.75
2023-03-01T09:27:09.712Z,12.70
2023-03-01T09:29:38.015Z,12.39
2023-03-01T09:32:09.198Z,15.40
2023-03-01T09:34:58.465Z,16.98
2023-03-01T09:37:26.605Z,20.93
2023-03-01T09:39:54.949Z,21.96
2023-03-01T09:42:24.567Z,19.61
2023-03-01T09:44:58.663Z,18.39
2023-03-01T09:47:31.105Z,16.77
2023-03-01T09:50:06.879Z,18.01
2023-03-01T09:52:41.923Z,19.45
2023-03-01T09:55:13.945Z,18.89
2023-03-01T09:57:49.868Z,18.85
2023-03-01T10:00:32.091Z,19.52
2023-03-01T10:03:11.192Z,22.45
2023-03-01T10:05:46.901Z,18.86
2023-03-01T10:08:32.133Z,19.66
2023-03-01T10:11:01.218Z,17.95
2023-03-01T10:13:35.473Z,17.14
2023-03-01T10:16:12.402Z,17.73
2023-03-01T10:18:43.426Z,17.31
2023-03-01T10:21:18.422Z,18.26
2023-03-01T10:23:47.566Z,16.01
2023-03-01T10:26:33.374Z,17.65
2023-03-01T10:29:05.441Z,15.84
2023-03-01T10:31:41.499Z,18.09
2023-03-01T10:34:13.903Z,18.26
2023-03-01T10:36:44.362Z,16.48
2023-03-01T10:39:16.609Z,18.33
2023-03-01T10:41:56.938Z,14.78
2023-03-01T10:44:44.980Z,16.08
2023-03-01T10:47:21.450Z,16.21
2023-03-01T10:50:19.762Z,14.97
2023-03-01T10:53:00.250Z,13.64
2023-03-01T10:55:33.802Z,15.45
2023-03-01T10:58:10.718Z,14.28
2023-03-01T11:00:50.181Z,13.43
2023-03-01T11:03:22.745Z,13.96
2023-03-01T11:06:02.642Z,14.12
2023-03-01T11:08:43.711Z,13.67
2023-03-01T11:11:32.637Z,12.60
2023-03-01T11:14:06.574Z,13.42
2023-03-01T11:16:40.412Z,14.83
2023-03-01T11:19:21.915Z,14.14
2023-03-01T11:22:00.767Z,13.08
2023-03-01T11:24:35.676Z,13.81
2023-03-01T11:27:07.148Z,13.97
2023-03-01T11:29:48.556Z,14.38
2023-03-01T11:32:18.810Z,16.07
2023-03-01T11:34:52.606Z,15.24
2023-03-01T11:37:34.878Z,12.72
2023-03-01T11:40:13.966Z,11.72
2023-03-01T11:42:52.568Z,13.03
2023-03-01T11:45:25.995Z,13.99
2023-03-01T11:48:26.245Z,12.70
2023-03-01T11:50:57.435Z,11.88
2023-03-01T11:53:53.534Z,11.46
2023-03-01T11:56:31.285Z,12.13
2023-03-01T11:59:34.218Z,12.36
2023-03-01T12:02:24.333Z,13.61
2023-03-01T12:05:16.014Z,14.49
2023-03-01T12:07:55.246Z,14.22
2023-03-01T12:10:29.160Z,13.26
2023-03-01T12:13:13.516Z,13.57
2023-03-01T12:16:37.451Z,12.73
2023-03-01T12:19:36.753Z,11.60
2023-03-01T12:22:32.141Z,11.40
2023-03-01T12:25:18.370Z,11.02
2023-03-01T12:28:13.883Z,11.50
2023-03-01T12:30:56.608Z,11.48
2023-03-01T12:33:35.448Z,12.26
2023-03-01T12:36:37.502Z,12.56
2023-03-01T12:39:20.513Z,11.50
2023-03-01T12:41:54.860Z,11.54
2023-03-01T12:44:47.643Z,12.04
2023-03-01T12:47:36.570Z,13.20
2023-03-01T12:50:13.474Z,13.07
2023-03-01T12:52:46.315Z,14.17
2023-03-01T12:55:28.417Z,13.28
2023-03-01T12:58:08.799Z,12.38
2023-03-01T13:00:48.375Z,11.49
2023-03-01T13:03:25.721Z,11.68
2023-03-01T13:06:07.021Z,11.83
2023-03-01T13:08:42.864Z,12.44
2023-03-01T13:11:20.001Z,11.85
2023-03-01T13:13:49.848Z,11.80
2023-03-01T13:16:44.033Z,10.45
2023-03-01T13:19:16.707Z,11.19
2023-03-01T13:21:46.195Z,11.53
2023-03-01T13:24:30.174Z,12.21
2023-03-01T13:27:30.444Z,13.35
2023-03-01T13:30:04.687Z,11.97
2023-03-01T13:32:44.223Z,11.69
2023-03-01T13:35:46.895Z,11.12
2023-03-01T13:38:42.248Z,10.83
2023-03-01T13:41:10.981Z,11.05
2023-03-01T13:43:41.121Z,11.74
2023-03-01T13:46:18.986Z,11.73
2023-03-01T13:48:52.718Z,12.27
2023-03-01T13:51:25.958Z,12.76
2023-03-01T13:53:56.196Z,12.57
2023-03-01T13:56:29.305Z,12.51
2023-03-01T13:59:04.069Z,12.56
2023-03-01T14:01:35.407Z,10.92
2023-03-01T14:04:20.476Z,11.34
2023-03-01T14:06:48.896Z,11.57
2023-03-01T14:09:24.834Z,10.51
2023-03-01T14:12:16.272Z,10.90
2023-03-01T14:14:50.475Z,10.78
2023-03-01T14:17:54.111Z,10.95
2023-03-01T14:20:25.825Z,11.03
2023-03-01T14:22:56.954Z,11.84
2023-03-01T14:25:28.709Z,11.94
2023-03-01T14:28:05.875Z,12.03
2023-03-01T14:30:39.973Z,11.43
2023-03-01T14:33:20.713Z,11.20
2023-03-01T14:36:00.429Z,10.85
2023-03-01T14:38:35.909Z,11.70
2023-03-01T14:41:07.617Z,12.01
2023-03-01T14:43:37.711Z,11.93
2023-03-01T14:46:06.497Z,11.76
2023-03-01T14:48:34.725Z,11.15
2023-03-01T14:51:07.882Z,11.23
2023-03-01T14:53:49.205Z,11.47
2023-03-01T14:56:19.983Z,11.95
2023-03-01T14:58:49.571Z,12.49
2023-03-01T15:01:20.212Z,11.15
2023-03-01T15:03:50.881Z,11.73
2023-03-01T15:06:23.022Z,11.67
2023-03-01T15:08:54.636Z,11.69
2023-03-01T15:11:25.981Z,11.37
2023-03-01T15:13:55.348Z,11.07
2023-03-01T15:16:26.153Z,11.09
2023-03-01T15:18:58.823Z,11.09
2023-03-01T15:21:31.859Z,9.86
2023-03-01T15:24:06.568Z,10.08
2023-03-01T15:26:39.700Z,10.45
2023-03-01T15:29:19.674Z,10.27
2023-03-01T15:31:57.667Z,10.80
2023-03-01T15:34:28.052Z,10.94
2023-03-01T15:37:00.368Z,11.82
2023-03-01T15:39:41.177Z,12.26
2023-03-01T15:42:12.857Z,11.88
2023-03-01T15:44:46.174Z,11.51
2023-03-01T15:47:30.264Z,10.63
2023-03-01T15:50:00.125Z,10.07
2023-03-01T15:52:36.169Z,10.59
2023-03-01T15:55:09.569Z,10.53
2023-03-01T15:57:37.794Z,11.08
2023-03-01T16:00:12.399Z,10.64
2023-03-01T16:02:41.548Z,10.26
2023-03-01T16:05:20.905Z,10.98
2023-03-01T16:07:51.552Z,10.84
2023-03-01T16:10:20.907Z,10.94
2023-03-01T16:12:50.644Z,10.65
2023-03-01T16:18:45.218Z,6.63
2023-03-01T16:21:21.970Z,4.77
2023-03-01T16:23:50.705Z,3.97
2023-03-01T16:26:21.343Z,3.23
2023-03-01T16:28:50.482Z,2.75
2023-03-01T16:31:21.528Z,2.43
2023-03-01T16:33:52.594Z,2.05
2023-03-01T16:36:24.667Z,1.79
2023-03-01T16:38:53.574Z,1.59
2023-03-01T16:41:24.350Z,1.57
2023-03-01T16:43:53.209Z,1.32
2023-03-01T16:46:23.850Z,1.16
2023-03-01T16:48:54.794Z,1.32
2023-03-01T16:51:25.038Z,1.05
2023-03-01T16:53:53.361Z,0.91
2023-03-01T16:56:21.955Z,0.85
2023-03-01T16:58:50.317Z,0.73
2023-03-01T17:01:20.714Z,0.81
2023-03-01T17:03:51.395Z,0.55
2023-03-01T17:06:25.862Z,0.28
2023-03-01T17:08:54.296Z,0.22
2023-03-01T17:11:22.836Z,0.05
2023-03-01T17:13:51.206Z,0.01
2023-03-01T17:16:20.915Z,-0.18
2023-03-01T17:18:50.342Z,-0.15
2023-03-01T17:21:20.350Z,-0.20
2023-03-01T17:23:50.485Z,-0.20
2023-03-01T17:26:19.206Z,-0.04
2023-03-01T17:28:52.165Z,-0.26
2023-03-01T17:31:22.000Z,-0.46
2023-03-01T17:33:50.531Z,-0.54
2023-03-01T17:36:20.583Z,-0.70
2023-03-01T17:38:49.404Z,-0.64
2023-03-01T17:41:18.877Z,-0.55
2023-03-01T17:43:47.559Z,-0.89
2023-03-01T17:46:16.327Z,-1.17
2023-03-01T17:48:45.027Z,-1.15
2023-03-01T17:51:13.620Z,-1.18
2023-03-01T17:53:43.321Z,-1.22
2023-03-01T17:56:12.360Z,-1.34
2023-03-01T17:58:40.571Z,-1.40
2023-03-01T18:01:12.693Z,-1.60
2023-03-01T18:03:46.601Z,-1.82
2023-03-01T18:06:17.291Z,-1.91
2023-03-01T18:08:49.027Z,-1.92
2023-03-01T18:11:18.232Z,-1.97
2023-03-01T18:13:47.756Z,-1.88
2023-03-01T18:16:19.558Z,-1.77
2023-03-01T18:18:48.458Z,-1.72
2023-03-01T18:21:17.497Z,-1.47
2023-03-01T18:23:47.317Z,-1.20
2023-03-01T18:26:17.728Z,-1.13
2023-03-01T18:28:47.568Z,-1.36
2023-03-01T18:31:18.818Z,-1.32
2023-03-01T18:33:47.512Z,-1.39
2023-03-01T18:36:20.828Z,-1.60
2023-03-01T18:38:51.041Z,-1.59
2023-03-01T18:41:19.112Z,-1.55
2023-03-01T18:43:47.408Z,-1.72
2023-03-01T18:46:15.710Z,-1.70
2023-03-01T18:48:45.005Z,-1.57
2023-03-01T18:51:14.921Z,-1.57
2023-03-01T18:53:43.492Z,-1.54
2023-03-01T18:56:13.471Z,-1.17
2023-03-01T18:58:43.761Z,-1.12
2023-03-01T19:01:15.175Z,-1.09
2023-03-01T19:03:43.678Z,-0.99
2023-03-01T19:06:11.976Z,-0.97
2023-03-01T19:08:42.187Z,-0.90
2023-03-01T19:11:13.560Z,-0.84
2023-03-01T19:13:42.641Z,-0.93
2023-03-01T19:16:12.738Z,-0.96
2023-03-01T19:18:42.517Z,-0.95
2023-03-01T19:21:12.960Z,-0.95
2023-03-01T19:23:41.109Z,-1.14
2023-03-01T19:26:13.099Z,-1.20
2023-03-01T19:28:42.596Z,-1.30
2023-03-01T19:31:14.101Z,-1.41
2023-03-01T19:33:43.256Z,-1.52
2023-03-01T19:36:13.670Z,-1.58
2023-03-01T19:38:43.190Z,-1.66
2023-03-01T19:41:15.840Z,-1.83
2023-03-01T19:43:46.494Z,-1.77
2023-03-01T19:46:16.484Z,-1.90
2023-03-01T19:48:45.988Z,-1.86
2023-03-01T19:51:14.644Z,-1.90
2023-03-01T19:53:43.183Z,-1.84
2023-03-01T19:56:12.686Z,-1.93
2023-03-01T19:58:41.382Z,-1.88
2023-03-01T20:01:17.102Z,-1.82
2023-03-01T20:03:46.340Z,-1.61
2023-03-01T20:06:16.954Z,-1.45
2023-03-01T20:08:45.956Z,-1.27
2023-03-01T20:11:17.343Z,-1.40
2023-03-01T20:13:46.261Z,-1.57
2023-03-01T20:16:17.871Z,-1.57
2023-03-01T20:18:46.781Z,-1.90
2023-03-01T20:21:24.192Z,-2.14
2023-03-01T20:23:53.495Z,-2.25
2023-03-01T20:26:25.541Z,-2.43
2023-03-01T20:28:57.076Z,-2.53
2023-03-01T20:31:29.932Z,-2.61
2023-03-01T20:33:59.872Z,-2.60
2023-03-01T20:36:29.186Z,-2.53
2023-03-01T20:38:58.775Z,-2.61
2023-03-01T20:41:28.720Z,-2.65
2023-03-01T20:43:59.482Z,-2.77
2023-03-01T20:46:32.828Z,-2.91
2023-03-01T20:49:02.302Z,-3.11
2023-03-01T20:51:30.762Z,-3.16
2023-03-01T20:53:59.358Z,-3.26
2023-03-01T20:56:28.981Z,-3.23
2023-03-01T20:59:04.395Z,-3.30
2023-03-01T21:01:32.907Z,-3.35
2023-03-01T21:04:01.508Z,-3.21
2023-03-01T21:06:30.384Z,-3.17
2023-03-01T21:08:59.033Z,-3.12
2023-03-01T21:11:28.943Z,-3.11
2023-03-01T21:13:57.980Z,-3.33
2023-03-01T21:16:27.086Z,-3.38
2023-03-01T21:18:55.459Z,-3.59
2023-03-01T21:21:25.140Z,-3.58
2023-03-01T21:23:54.843Z,-3.67
2023-03-01T21:26:24.688Z,-3.63
2023-03-01T21:28:56.657Z,-3.49
2023-03-01T21:31:28.710Z,-3.56
2023-03-01T21:33:58.925Z,-3.66
2023-03-01T21:36:29.087Z,-3.58
2023-03-01T21:38:57.328Z,-3.61
2023-03-01T21:41:29.265Z,-3.62
2023-03-01T21:44:01.292Z,-3.60
2023-03-01T21:46:33.282Z,-3.56
2023-03-01T21:49:02.717Z,-3.42
2023-03-01T21:51:34.080Z,-3.65
2023-03-01T21:54:02.456Z,-3.78
2023-03-01T21:56:34.727Z,-3.89
2023-03-01T21:59:05.032Z,-3.95
2023-03-01T22:01:33.845Z,-3.99
2023-03-01T22:04:03.464Z,-4.04
2023-03-01T22:06:35.741Z,-3.96
2023-03-01T22:09:07.699Z,-4.03
2023-03-01T22:11:37.559Z,-4.22
2023-03-01T22:14:08.015Z,-4.16
2023-03-01T22:16:38.855Z,-4.17
2023-03-01T22:19:09.082Z,-4.11
2023-03-01T22:21:40.618Z,-4.16
2023-03-01T22:24:09.759Z,-4.21
2023-03-01T22:26:40.036Z,-4.25
2023-03-01T22:29:12.136Z,-4.28
2023-03-01T22:31:41.311Z,-4.31
2023-03-01T22:34:10.921Z,-4.20
2023-03-01T22:36:40.681Z,-4.12
2023-03-01T22:39:09.129Z,-4.15
2023-03-01T22:41:41.511Z,-4.23
2023-03-01T22:44:11.128Z,-4.26
2023-03-01T22:46:39.729Z,-4.43
2023-03-01T22:49:08.363Z,-4.55
2023-03-01T22:51:40.519Z,-4.57
2023-03-01T22:54:10.689Z,-4.46
2023-03-01T22:56:39.827Z,-4.59
2023-03-01T22:59:19.022Z,-4.56
2023-03-01T23:01:48.377Z,-4.50
2023-03-01T23:04:17.827Z,-4.56
2023-03-01T23:06:54.970Z,-4.69
2023-03-01T23:09:27.635Z,-4.68
2023-03-01T23:11:57.173Z,-4.61
2023-03-01T23:14:27.871Z,-4.51
2023-03-01T23:16:56.759Z,-4.61
2023-03-01T23:19:25.442Z,-4.60
2023-03-01T23:21:54.697Z,-4.58
2023-03-01T23:24:30.591Z,-4.55
2023-03-01T23:27:02.107Z,-4.53
2023-03-01T23:29:32.753Z,-4.59
2023-03-01T23:32:01.804Z,-4.70
2023-03-01T23:34:30.740Z,-4.86
2023-03-01T23:36:59.166Z,-5.01
2023-03-01T23:39:30.036Z,-5.01
2023-03-01T23:41:59.197Z,-4.93
2023-03-01T23:44:28.137Z,-4.89
2023-03-01T23:46:57.978Z,-4.73
2023-03-01T23:49:28.022Z,-4.81
2023-03-01T23:51:56.252Z,-4.81
2023-03-01T23:54:25.821Z,-4.88
2023-03-01T23:56:54.517Z,-4.94
2023-03-01T23:59:26.155Z,-4.94
